createdAt,value
2023-05-14T00:00:51.070Z,0.2325
2023-05-14T00:01:52.500Z,0.2866
2023-05-14T00:02:53.943Z,0.3101
2023-05-14T00:03:55.321Z,0.2444
2023-05-14T00:04:56.663Z,0.3364
2023-05-14T00:05:58.109Z,0.3477
2023-05-14T00:06:59.626Z,0.2329
2023-05-14T00:08:01.001Z,0.2439
2023-05-14T00:09:02.356Z,0.3441
2023-05-14T00:10:03.832Z,0.3772
2023-05-14T00:11:05.205Z,0.3449
2023-05-14T00:12:06.742Z,0.3102
2023-05-14T00:13:08.143Z,0.3167
2023-05-14T00:14:09.513Z,0.2935
2023-05-14T00:15:10.872Z,0.4420
2023-05-14T00:16:12.398Z,0.2535
2023-05-14T00:17:13.769Z,0.2846
2023-05-14T00:18:15.251Z,0.3484
2023-05-14T00:19:16.671Z,0.2309
2023-05-14T00:20:18.117Z,0.2479
2023-05-14T00:21:19.393Z,0.2747
2023-05-14T00:22:20.897Z,0.3494
2023-05-14T00:23:22.351Z,0.3941
2023-05-14T00:24:23.719Z,0.2735
2023-05-14T00:25:25.085Z,0.2824
2023-05-14T00:26:26.631Z,0.3055
2023-05-14T00:27:28.064Z,0.3375
2023-05-14T00:28:29.485Z,0.2812
2023-05-14T00:29:30.891Z,0.2369
2023-05-14T00:30:32.254Z,0.2081
2023-05-14T00:31:33.813Z,0.3295
2023-05-14T00:32:35.144Z,0.3245
2023-05-14T00:33:36.560Z,0.3199
2023-05-14T00:34:37.954Z,0.3230
2023-05-14T00:35:39.401Z,0.2642
2023-05-14T00:36:40.816Z,0.3121
2023-05-14T00:37:42.282Z,0.3657
2023-05-14T00:38:43.615Z,0.4330
2023-05-14T00:39:45.080Z,0.2921
2023-05-14T00:40:46.472Z,0.2790
2023-05-14T00:41:47.840Z,0.2787
2023-05-14T00:42:49.271Z,0.2874
2023-05-14T00:43:50.834Z,0.3340
2023-05-14T00:44:52.183Z,0.2830
2023-05-14T00:45:53.678Z,0.2646
2023-05-14T00:46:55.097Z,0.1855
2023-05-14T00:47:56.519Z,0.3583
2023-05-14T00:48:57.928Z,0.3300
2023-05-14T00:49:59.349Z,0.2804
2023-05-14T00:51:00.739Z,0.2672
2023-05-14T00:52:02.200Z,0.3066
2023-05-14T00:53:03.643Z,0.2611
2023-05-14T00:54:05.805Z,0.3254
2023-05-14T00:55:06.584Z,0.2767
2023-05-14T00:56:07.841Z,0.2570
2023-05-14T00:57:09.307Z,0.2379
2023-05-14T00:58:10.742Z,0.2502
2023-05-14T00:59:12.193Z,0.2504
2023-05-14T01:00:13.500Z,0.3703
2023-05-14T01:01:14.980Z,0.2799
2023-05-14T01:02:16.479Z,0.2849
2023-05-14T01:03:18.007Z,0.3341
2023-05-14T01:04:19.273Z,0.3975
2023-05-14T01:05:20.755Z,0.2816
2023-05-14T01:06:22.090Z,0.3448
2023-05-14T01:07:23.520Z,0.3413
2023-05-14T01:08:25.046Z,0.3404
2023-05-14T01:09:26.397Z,0.2185
2023-05-14T01:10:27.810Z,0.2529
2023-05-14T01:11:29.282Z,0.3624
2023-05-14T01:12:30.701Z,0.2913
2023-05-14T01:13:32.049Z,0.2440
2023-05-14T01:14:33.476Z,0.4126
2023-05-14T01:15:34.903Z,0.4016
2023-05-14T01:16:36.382Z,0.4083
2023-05-14T01:17:37.811Z,0.3622
2023-05-14T01:18:39.288Z,0.2527
2023-05-14T01:19:40.664Z,0.3106
2023-05-14T01:20:42.071Z,0.3643
2023-05-14T01:21:43.458Z,0.3466
2023-05-14T01:22:44.943Z,0.3318
2023-05-14T01:23:46.324Z,0.3178
2023-05-14T01:24:47.733Z,0.3191
2023-05-14T01:25:49.222Z,0.2413
2023-05-14T01:26:50.527Z,0.2744
2023-05-14T01:27:52.109Z,0.3785
2023-05-14T01:28:53.416Z,0.3749
2023-05-14T01:29:54.833Z,0.2699
2023-05-14T01:30:56.407Z,0.2295
2023-05-14T01:31:58.906Z,0.2992
2023-05-14T01:32:59.197Z,0.3533
2023-05-14T01:34:00.612Z,0.3305
2023-05-14T01:35:02.084Z,0.4059
2023-05-14T01:36:04.370Z,0.3679
2023-05-14T01:37:04.952Z,0.2333
2023-05-14T01:38:06.408Z,0.4704
2023-05-14T01:39:07.788Z,0.4494
2023-05-14T01:40:09.143Z,0.3174
2023-05-14T01:41:10.634Z,0.3792
2023-05-14T01:42:12.064Z,0.3394
2023-05-14T01:43:13.489Z,0.3617
2023-05-14T01:44:14.898Z,0.2992
2023-05-14T01:45:16.286Z,0.3070
2023-05-14T01:46:17.808Z,0.3365
2023-05-14T01:47:19.886Z,0.3003
2023-05-14T01:48:20.567Z,0.2894
2023-05-14T01:49:21.958Z,0.2644
2023-05-14T01:50:23.689Z,0.2783
2023-05-14T01:51:24.853Z,0.2748
2023-05-14T01:52:26.283Z,0.3183
2023-05-14T01:53:27.631Z,0.3549
2023-05-14T01:54:29.144Z,0.2974
2023-05-14T01:55:30.472Z,0.3047
2023-05-14T01:56:31.959Z,0.2899
2023-05-14T01:57:33.446Z,0.3427
2023-05-14T01:58:34.757Z,0.3923
2023-05-14T01:59:36.118Z,0.3209
2023-05-14T02:00:37.614Z,0.2884
2023-05-14T02:01:39.131Z,0.4703
2023-05-14T02:02:40.476Z,0.2644
2023-05-14T02:03:42.006Z,0.3054
2023-05-14T02:04:43.321Z,0.3661
2023-05-14T02:05:44.686Z,0.4043
2023-05-14T02:06:46.852Z,0.2945
2023-05-14T02:07:47.669Z,0.3536
2023-05-14T02:08:48.977Z,0.3973
2023-05-14T02:09:50.473Z,0.3871
2023-05-14T02:10:51.823Z,0.4561
2023-05-14T02:11:53.353Z,0.3730
2023-05-14T02:12:54.685Z,0.3720
2023-05-14T02:13:56.162Z,0.3112
2023-05-14T02:14:57.613Z,0.2522
2023-05-14T02:15:59.121Z,0.3506
2023-05-14T02:17:00.429Z,0.3625
2023-05-14T02:18:01.993Z,0.3154
2023-05-14T02:19:03.378Z,0.3386
2023-05-14T02:20:04.677Z,0.3427
2023-05-14T02:21:06.080Z,0.3168
2023-05-14T02:22:07.569Z,0.2987
2023-05-14T02:23:08.932Z,0.2698
2023-05-14T02:24:10.314Z,0.3626
2023-05-14T02:25:11.778Z,0.4087
2023-05-14T02:26:13.253Z,0.3621
2023-05-14T02:27:14.776Z,0.3703
2023-05-14T02:28:16.047Z,0.3122
2023-05-14T02:29:17.483Z,0.2751
2023-05-14T02:30:18.859Z,0.2819
2023-05-14T02:31:20.395Z,0.3849
2023-05-14T02:32:21.827Z,0.4014
2023-05-14T02:33:23.322Z,0.2998
2023-05-14T02:34:24.599Z,0.3063
2023-05-14T02:35:26.068Z,0.2717
2023-05-14T02:36:27.420Z,0.3653
2023-05-14T02:37:28.992Z,0.2576
2023-05-14T02:38:30.292Z,0.2872
2023-05-14T02:39:31.643Z,0.2921
2023-05-14T02:40:33.107Z,0.3348
2023-05-14T02:41:34.593Z,0.3360
2023-05-14T02:42:35.990Z,0.3685
2023-05-14T02:43:37.440Z,0.2242
2023-05-14T02:44:38.722Z,0.3457
2023-05-14T02:45:40.306Z,0.3463
2023-05-14T02:46:41.719Z,0.3133
2023-05-14T02:47:43.945Z,0.3731
2023-05-14T02:48:45.333Z,0.3552
2023-05-14T02:49:45.831Z,0.2230
2023-05-14T02:50:47.420Z,0.3179
2023-05-14T02:51:48.778Z,0.4033
2023-05-14T02:52:50.293Z,0.3021
2023-05-14T02:53:51.696Z,0.3349
2023-05-14T02:54:53.814Z,0.3143
2023-05-14T02:55:54.546Z,0.3412
2023-05-14T02:56:55.908Z,0.4567
2023-05-14T02:57:57.356Z,0.4132
2023-05-14T02:58:59.417Z,0.2718
2023-05-14T03:00:00.052Z,0.2767
2023-05-14T03:01:01.647Z,0.4279
2023-05-14T03:02:03.093Z,0.3491
2023-05-14T03:03:04.467Z,0.3840
2023-05-14T03:04:05.899Z,0.4557
2023-05-14T03:05:07.286Z,0.3272
2023-05-14T03:06:08.728Z,0.2534
2023-05-14T03:07:10.116Z,0.3680
2023-05-14T03:08:11.449Z,0.2650
2023-05-14T03:09:12.956Z,0.2434
2023-05-14T03:10:14.407Z,0.3499
2023-05-14T03:11:15.792Z,0.3250
2023-05-14T03:12:17.246Z,0.3723
2023-05-14T03:13:18.552Z,0.2970
2023-05-14T03:14:20.063Z,0.2359
2023-05-14T03:15:21.414Z,0.3143
2023-05-14T03:16:22.930Z,0.3638
2023-05-14T03:17:24.274Z,0.3473
2023-05-14T03:18:25.855Z,0.3441
2023-05-14T03:19:27.160Z,0.2313
2023-05-14T03:20:28.593Z,0.2303
2023-05-14T03:21:30.020Z,0.3113
2023-05-14T03:22:31.425Z,0.3961
2023-05-14T03:23:33.366Z,0.4029
2023-05-14T03:24:34.289Z,0.3394
2023-05-14T03:25:35.702Z,0.3611
2023-05-14T03:26:37.076Z,0.2716
2023-05-14T03:27:38.551Z,0.4353
2023-05-14T03:28:39.977Z,0.2978
2023-05-14T03:29:41.416Z,0.3402
2023-05-14T03:30:42.920Z,0.2623
2023-05-14T03:31:44.240Z,0.2247
2023-05-14T03:32:45.642Z,0.2930
2023-05-14T03:33:47.048Z,0.3818
2023-05-14T03:34:48.486Z,0.3534
2023-05-14T03:35:49.920Z,0.3904
2023-05-14T03:36:51.283Z,0.3025
2023-05-14T03:37:52.753Z,0.2728
2023-05-14T03:38:54.180Z,0.3274
2023-05-14T03:39:55.668Z,0.3376
2023-05-14T03:40:57.014Z,0.3134
2023-05-14T03:41:58.441Z,0.2619
2023-05-14T03:42:59.827Z,0.2745
2023-05-14T03:44:01.320Z,0.3029
2023-05-14T03:45:02.760Z,0.2280
2023-05-14T03:46:04.139Z,0.3126
2023-05-14T03:47:05.605Z,0.2969
2023-05-14T03:48:07.102Z,0.3455
2023-05-14T03:49:08.482Z,0.2718
2023-05-14T03:50:09.958Z,0.2587
2023-05-14T03:51:11.259Z,0.2845
2023-05-14T03:52:12.695Z,0.2669
2023-05-14T03:53:14.093Z,0.2871
2023-05-14T03:54:15.549Z,0.2790
2023-05-14T03:55:17.024Z,0.2869
2023-05-14T03:56:18.285Z,0.2813
2023-05-14T03:57:19.756Z,0.2733
2023-05-14T03:58:21.237Z,0.4082
2023-05-14T03:59:22.651Z,0.3515
2023-05-14T04:00:24.333Z,0.3371
2023-05-14T04:01:25.505Z,0.2623
2023-05-14T04:02:27.046Z,0.2641
2023-05-14T04:03:28.407Z,0.3053
2023-05-14T04:04:29.828Z,0.2887
2023-05-14T04:05:31.904Z,0.2902
2023-05-14T04:06:32.607Z,0.3232
2023-05-14T04:07:34.014Z,0.3433
2023-05-14T04:08:35.509Z,0.2071
2023-05-14T04:09:36.938Z,0.2838
2023-05-14T04:10:38.448Z,0.3136
2023-05-14T04:11:39.792Z,0.2837
2023-05-14T04:12:41.184Z,0.3625
2023-05-14T04:13:42.569Z,0.2503
2023-05-14T04:14:44.046Z,0.3650
2023-05-14T04:15:46.354Z,0.4002
2023-05-14T04:16:46.980Z,0.2438
2023-05-14T04:17:48.350Z,0.3375
2023-05-14T04:18:49.780Z,0.3954
2023-05-14T04:19:51.141Z,0.3041
2023-05-14T04:20:52.609Z,0.3615
2023-05-14T04:21:54.033Z,0.2351
2023-05-14T04:22:55.352Z,0.4202
2023-05-14T04:23:56.871Z,0.3152
2023-05-14T04:24:58.393Z,0.3486
2023-05-14T04:25:59.681Z,0.3631
2023-05-14T04:27:01.150Z,0.3349
2023-05-14T04:28:02.514Z,0.2259
2023-05-14T04:29:03.884Z,0.2717
2023-05-14T04:30:05.380Z,0.3825
2023-05-14T04:31:06.831Z,0.2781
2023-05-14T04:32:08.307Z,0.2700
2023-05-14T04:33:09.748Z,0.2903
2023-05-14T04:34:11.076Z,0.2510
2023-05-14T04:35:12.561Z,0.2902
2023-05-14T04:36:13.957Z,0.2625
2023-05-14T04:37:15.289Z,0.2501
2023-05-14T04:38:16.762Z,0.2499
2023-05-14T04:39:18.217Z,0.3727
2023-05-14T04:40:19.704Z,0.2796
2023-05-14T04:41:21.145Z,0.3857
2023-05-14T04:42:22.443Z,0.3419
2023-05-14T04:43:23.934Z,0.2506
2023-05-14T04:44:25.315Z,0.2590
2023-05-14T04:45:26.819Z,0.2878
2023-05-14T04:46:28.369Z,0.3239
2023-05-14T04:47:29.762Z,0.3279
2023-05-14T04:48:31.052Z,0.3697
2023-05-14T04:49:32.534Z,0.3108
2023-05-14T04:50:33.900Z,0.2851
2023-05-14T04:51:35.386Z,0.2951
2023-05-14T04:52:36.749Z,0.2470
2023-05-14T04:53:38.217Z,0.2035
2023-05-14T04:54:39.716Z,0.1810
2023-05-14T04:55:40.958Z,0.2987
2023-05-14T04:56:42.582Z,0.2882
2023-05-14T04:57:43.901Z,0.3288
2023-05-14T04:58:45.284Z,0.3434
2023-05-14T04:59:46.770Z,0.2589
2023-05-14T05:00:48.253Z,0.2357
2023-05-14T05:01:49.698Z,0.2653
2023-05-14T05:02:51.029Z,0.2392
2023-05-14T05:03:52.368Z,0.2683
2023-05-14T05:04:53.880Z,0.2995
2023-05-14T05:05:55.322Z,0.2821
2023-05-14T05:06:56.745Z,0.1984
2023-05-14T05:07:58.188Z,0.2298
2023-05-14T05:09:01.845Z,0.2096
2023-05-14T05:10:00.991Z,0.2021
2023-05-14T05:11:02.464Z,0.2611
2023-05-14T05:12:03.866Z,0.2893
2023-05-14T05:13:05.376Z,0.3232
2023-05-14T05:14:06.826Z,0.3725
2023-05-14T05:15:08.137Z,0.3101
2023-05-14T05:16:09.723Z,0.2930
2023-05-14T05:17:11.012Z,0.3363
2023-05-14T05:18:12.467Z,0.2842
2023-05-14T05:19:13.981Z,0.2908
2023-05-14T05:20:15.377Z,0.2893
2023-05-14T05:21:16.650Z,0.3028
2023-05-14T05:22:18.947Z,0.3304
2023-05-14T05:23:19.491Z,0.2735
2023-05-14T05:24:20.962Z,0.2085
2023-05-14T05:25:22.389Z,0.2632
2023-05-14T05:26:23.802Z,0.2167
2023-05-14T05:27:25.237Z,0.3027
2023-05-14T05:28:26.664Z,0.3166
2023-05-14T05:29:28.031Z,0.3718
2023-05-14T05:30:29.475Z,0.2733
2023-05-14T05:31:30.970Z,0.4407
2023-05-14T05:32:32.487Z,0.1898
2023-05-14T05:33:33.839Z,0.3089
2023-05-14T05:34:35.255Z,0.2687
2023-05-14T05:35:36.710Z,0.2061
2023-05-14T05:36:38.039Z,0.2495
2023-05-14T05:37:39.565Z,0.2298
2023-05-14T05:38:40.973Z,0.3037
2023-05-14T05:39:42.390Z,0.2745
2023-05-14T05:40:43.774Z,0.2629
2023-05-14T05:41:45.353Z,0.2336
2023-05-14T05:42:46.613Z,0.2456
2023-05-14T05:43:48.190Z,0.3177
2023-05-14T05:44:49.591Z,0.3093
2023-05-14T05:45:51.002Z,0.2474
2023-05-14T05:46:52.386Z,0.2076
2023-05-14T05:47:53.874Z,0.2706
2023-05-14T05:48:55.130Z,0.2130
2023-05-14T05:49:56.612Z,0.2427
2023-05-14T05:50:57.986Z,0.2018
2023-05-14T05:51:59.459Z,0.2753
2023-05-14T05:53:00.934Z,0.3176
2023-05-14T05:54:02.470Z,0.2747
2023-05-14T05:55:03.781Z,0.2943
2023-05-14T05:56:05.123Z,0.2725
2023-05-14T05:57:06.578Z,0.2701
2023-05-14T05:58:08.030Z,0.2440
2023-05-14T05:59:09.468Z,0.2765
2023-05-14T06:00:10.869Z,0.2322
2023-05-14T06:01:12.255Z,0.3165
2023-05-14T06:02:13.773Z,0.3269
2023-05-14T06:03:15.163Z,0.2994
2023-05-14T06:04:16.609Z,0.2550
2023-05-14T06:05:18.007Z,0.2283
2023-05-14T06:06:19.535Z,0.2005
2023-05-14T06:07:20.794Z,0.2270
2023-05-14T06:08:22.273Z,0.2604
2023-05-14T06:09:23.664Z,0.2541
2023-05-14T06:10:25.374Z,0.2771
2023-05-14T06:11:26.497Z,0.4092
2023-05-14T06:12:27.953Z,0.3125
2023-05-14T06:13:29.350Z,0.2617
2023-05-14T06:14:30.829Z,0.2980
2023-05-14T06:15:32.165Z,0.2617
2023-05-14T06:16:33.697Z,0.2432
2023-05-14T06:17:35.063Z,0.2940
2023-05-14T06:18:36.582Z,0.3030
2023-05-14T06:19:37.969Z,0.2287
2023-05-14T06:20:39.389Z,0.2019
2023-05-14T06:21:40.680Z,0.2055
2023-05-14T06:22:42.122Z,0.2625
2023-05-14T06:23:43.625Z,0.2599
2023-05-14T06:24:45.017Z,0.2112
2023-05-14T06:25:46.570Z,0.2220
2023-05-14T06:26:47.849Z,0.2258
2023-05-14T06:27:49.258Z,0.3051
2023-05-14T06:28:50.624Z,0.2572
2023-05-14T06:29:52.069Z,0.2405
2023-05-14T06:30:53.514Z,0.2856
2023-05-14T06:31:54.999Z,0.2306
2023-05-14T06:32:56.335Z,0.2307
2023-05-14T06:33:57.645Z,0.1818
2023-05-14T06:34:59.183Z,0.2002
2023-05-14T06:36:00.570Z,0.2272
2023-05-14T06:37:01.973Z,0.3030
2023-05-14T06:38:03.372Z,0.2218
2023-05-14T06:39:04.805Z,0.2156
2023-05-14T06:40:06.269Z,0.2408
2023-05-14T06:41:07.670Z,0.1802
2023-05-14T06:42:09.027Z,0.2433
2023-05-14T06:43:10.585Z,0.2691
2023-05-14T06:44:11.917Z,0.2102
2023-05-14T06:45:13.398Z,0.1399
2023-05-14T06:46:14.760Z,0.1666
2023-05-14T06:47:16.213Z,0.1724
2023-05-14T06:48:17.549Z,0.2489
2023-05-14T06:49:19.024Z,0.2418
2023-05-14T06:50:20.518Z,0.1614
2023-05-14T06:51:21.924Z,0.1561
2023-05-14T06:52:23.353Z,0.1443
2023-05-14T06:53:24.797Z,0.2593
2023-05-14T06:54:26.191Z,0.2130
2023-05-14T06:55:27.602Z,0.1829
2023-05-14T06:56:28.947Z,0.1672
2023-05-14T06:57:30.505Z,0.2072
2023-05-14T06:58:31.769Z,0.1869
2023-05-14T06:59:33.245Z,0.2452
2023-05-14T07:00:34.710Z,0.2312
2023-05-14T07:01:36.234Z,0.2041
2023-05-14T07:02:37.401Z,0.2174
2023-05-14T07:03:39.017Z,0.1920
2023-05-14T07:04:40.392Z,0.1742
2023-05-14T07:05:41.842Z,0.1738
2023-05-14T07:06:43.187Z,0.1485
2023-05-14T07:07:44.629Z,0.0968
2023-05-14T07:08:46.030Z,0.1735
2023-05-14T07:09:47.464Z,0.1410
2023-05-14T07:10:48.929Z,0.1467
2023-05-14T07:11:50.329Z,0.1117
2023-05-14T07:12:51.725Z,0.1101
2023-05-14T07:13:53.244Z,0.2052
2023-05-14T07:14:54.551Z,0.1644
2023-05-14T07:15:56.089Z,0.1949
2023-05-14T07:16:57.523Z,0.1590
2023-05-14T07:17:58.907Z,0.2511
2023-05-14T07:19:00.331Z,0.1306
2023-05-14T07:20:01.833Z,0.1110
2023-05-14T07:21:03.168Z,0.1063
2023-05-14T07:22:04.492Z,0.2911
2023-05-14T07:23:05.902Z,0.1139
2023-05-14T07:24:07.444Z,0.2054
2023-05-14T07:25:08.782Z,0.1620
2023-05-14T07:26:10.287Z,0.1421
2023-05-14T07:27:11.770Z,0.1696
2023-05-14T07:28:13.126Z,0.1240
2023-05-14T07:29:14.406Z,0.0940
2023-05-14T07:30:16.077Z,0.1316
2023-05-14T07:31:17.360Z,0.1931
2023-05-14T07:32:18.781Z,0.1632
2023-05-14T07:33:20.210Z,0.0981
2023-05-14T07:34:21.585Z,0.1147
2023-05-14T07:35:23.022Z,0.1201
2023-05-14T07:36:24.496Z,0.2117
2023-05-14T07:37:25.941Z,0.2154
2023-05-14T07:38:27.350Z,0.2186
2023-05-14T07:39:28.765Z,0.3026
2023-05-14T07:40:30.140Z,0.1378
2023-05-14T07:41:31.661Z,0.2248
2023-05-14T07:42:36.588Z,0.1944
2023-05-14T07:43:34.390Z,0.3182
2023-05-14T07:44:35.834Z,0.2090
2023-05-14T07:45:37.288Z,0.2211
2023-05-14T07:46:38.694Z,0.2154
2023-05-14T07:47:40.152Z,0.2598
2023-05-14T07:48:41.528Z,0.2184
2023-05-14T07:49:42.919Z,0.2498
2023-05-14T07:50:44.358Z,0.2376
2023-05-14T07:51:45.836Z,0.1710
2023-05-14T07:52:47.231Z,0.2049
2023-05-14T07:53:48.624Z,0.1412
2023-05-14T07:54:50.757Z,0.2544
2023-05-14T07:55:51.436Z,0.1994
2023-05-14T07:56:52.889Z,0.1697
2023-05-14T07:57:54.356Z,0.1922
2023-05-14T07:58:55.693Z,0.2777
2023-05-14T07:59:57.073Z,0.2001
2023-05-14T08:00:58.555Z,0.1922
2023-05-14T08:02:00.067Z,0.1949
2023-05-14T08:03:01.459Z,0.2417
2023-05-14T08:04:02.927Z,0.3257
2023-05-14T08:05:04.257Z,0.2822
2023-05-14T08:06:05.728Z,0.2167
2023-05-14T08:07:07.122Z,0.2301
2023-05-14T08:08:08.571Z,0.2706
2023-05-14T08:09:09.894Z,0.3857
2023-05-14T08:10:11.352Z,0.2511
2023-05-14T08:11:12.753Z,0.1871
2023-05-14T08:12:14.222Z,0.3480
2023-05-14T08:13:15.652Z,0.2873
2023-05-14T08:14:16.952Z,0.2092
2023-05-14T08:15:18.434Z,0.1445
2023-05-14T08:16:19.949Z,0.2431
2023-05-14T08:17:21.348Z,0.2363
2023-05-14T08:18:22.765Z,0.2632
2023-05-14T08:19:24.168Z,0.2638
2023-05-14T08:20:25.886Z,0.2096
2023-05-14T08:21:26.969Z,0.2249
2023-05-14T08:22:28.427Z,0.2025
2023-05-14T08:23:29.885Z,0.1027
2023-05-14T08:24:31.328Z,0.2088
2023-05-14T08:25:32.713Z,0.1322
2023-05-14T08:26:34.216Z,0.2598
2023-05-14T08:27:35.597Z,0.2781
2023-05-14T08:28:37.079Z,0.1730
2023-05-14T08:29:38.454Z,0.1846
2023-05-14T08:30:39.806Z,0.1324
2023-05-14T08:31:41.304Z,0.1868
2023-05-14T08:32:42.733Z,0.2040
2023-05-14T08:33:44.173Z,0.2385
2023-05-14T08:34:45.623Z,0.1050
2023-05-14T08:35:46.961Z,0.1720
2023-05-14T08:36:48.401Z,0.1528
2023-05-14T08:37:49.819Z,0.1057
2023-05-14T08:38:51.253Z,0.2271
2023-05-14T08:39:52.680Z,0.1962
2023-05-14T08:40:54.116Z,0.1662
2023-05-14T08:41:55.462Z,0.2021
2023-05-14T08:42:56.960Z,0.2171
2023-05-14T08:43:58.381Z,0.1528
2023-05-14T08:44:59.755Z,0.1457
2023-05-14T08:46:01.217Z,0.0761
2023-05-14T08:47:02.647Z,0.1879
2023-05-14T08:48:04.091Z,0.1848
2023-05-14T08:49:05.593Z,0.1794
2023-05-14T08:50:06.864Z,0.2015
2023-05-14T08:51:08.250Z,0.1324
2023-05-14T08:52:09.640Z,0.2095
2023-05-14T08:53:11.109Z,0.1607
2023-05-14T08:54:12.481Z,0.2221
2023-05-14T08:55:14.051Z,0.1565
2023-05-14T08:56:15.336Z,0.2199
2023-05-14T08:57:16.799Z,0.1238
2023-05-14T08:58:18.136Z,0.1839
2023-05-14T08:59:19.713Z,0.0963
2023-05-14T09:00:21.164Z,0.1400
2023-05-14T09:01:22.582Z,0.0769
2023-05-14T09:02:23.937Z,0.2091
2023-05-14T09:03:25.432Z,0.1329
2023-05-14T09:04:26.818Z,0.1517
2023-05-14T09:05:28.253Z,0.1540
2023-05-14T09:06:29.688Z,0.1916
2023-05-14T09:07:31.024Z,0.1089
2023-05-14T09:08:32.397Z,0.1788
2023-05-14T09:09:33.922Z,0.1808
2023-05-14T09:10:35.344Z,0.1677
2023-05-14T09:11:36.692Z,0.1702
2023-05-14T09:12:38.176Z,0.2654
2023-05-14T09:13:39.574Z,0.2140
2023-05-14T09:14:41.004Z,0.2284
2023-05-14T09:15:42.360Z,0.2206
2023-05-14T09:16:43.886Z,0.1754
2023-05-14T09:17:45.320Z,0.1681
2023-05-14T09:18:46.810Z,0.2019
2023-05-14T09:19:48.205Z,0.2003
2023-05-14T09:20:49.497Z,0.1778
2023-05-14T09:21:50.932Z,0.1502
2023-05-14T09:22:52.364Z,0.1109
2023-05-14T09:23:53.796Z,0.2549
2023-05-14T09:24:55.256Z,0.2056
2023-05-14T09:25:56.748Z,0.1830
2023-05-14T09:26:58.042Z,0.1311
2023-05-14T09:27:59.482Z,0.1941
2023-05-14T09:29:00.764Z,0.1927
2023-05-14T09:30:02.413Z,0.2400
2023-05-14T09:31:03.869Z,0.2103
2023-05-14T09:32:05.353Z,0.1475
2023-05-14T09:33:06.591Z,0.2377
2023-05-14T09:34:08.038Z,0.1441
2023-05-14T09:35:09.520Z,0.1791
2023-05-14T09:36:11.038Z,0.2241
2023-05-14T09:37:12.401Z,0.1260
2023-05-14T09:38:13.869Z,0.1267
2023-05-14T09:39:15.272Z,0.1361
2023-05-14T09:40:16.832Z,0.1473
2023-05-14T09:41:18.108Z,0.1637
2023-05-14T09:42:19.530Z,0.1825
2023-05-14T09:43:20.978Z,0.1741
2023-05-14T09:44:22.374Z,0.1501
2023-05-14T09:45:23.813Z,0.1271
2023-05-14T09:46:25.294Z,0.1879
2023-05-14T09:47:26.706Z,0.1671
2023-05-14T09:48:28.143Z,0.1797
2023-05-14T09:49:29.492Z,0.2008
2023-05-14T09:50:30.976Z,0.1433
2023-05-14T09:51:32.399Z,0.1687
2023-05-14T09:52:33.832Z,0.1619
2023-05-14T09:53:35.287Z,0.1053
2023-05-14T09:54:36.613Z,0.1229
2023-05-14T09:55:38.106Z,0.0812
2023-05-14T09:56:39.627Z,0.1461
2023-05-14T09:57:40.987Z,0.1435
2023-05-14T09:58:42.265Z,0.1830
2023-05-14T09:59:43.837Z,0.1901
2023-05-14T10:00:45.239Z,0.1378
2023-05-14T10:01:46.707Z,0.1570
2023-05-14T10:02:48.144Z,0.1262
2023-05-14T10:03:49.644Z,0.1148
2023-05-14T10:04:50.963Z,0.1822
2023-05-14T10:05:52.462Z,0.1400
2023-05-14T10:06:53.837Z,0.0946
2023-05-14T10:07:55.333Z,0.1356
2023-05-14T10:08:56.613Z,0.1887
2023-05-14T10:09:59.590Z,0.1726
2023-05-14T10:10:59.529Z,0.1367
2023-05-14T10:12:00.965Z,0.1086
2023-05-14T10:13:02.479Z,0.1855
2023-05-14T10:14:03.780Z,0.0980
2023-05-14T10:15:05.158Z,0.1305
2023-05-14T10:16:06.661Z,0.0970
2023-05-14T10:17:08.436Z,0.1517
2023-05-14T10:18:09.710Z,0.1213
2023-05-14T10:19:10.931Z,0.1160
2023-05-14T10:20:12.426Z,0.1349
2023-05-14T10:21:13.767Z,0.1469
2023-05-14T10:22:15.197Z,0.1500
2023-05-14T10:23:16.626Z,0.1441
2023-05-14T10:24:18.116Z,0.1444
2023-05-14T10:25:19.447Z,0.1211
2023-05-14T10:26:23.087Z,0.0836
2023-05-14T10:27:22.380Z,0.0789
2023-05-14T10:28:23.784Z,0.1426
2023-05-14T10:29:25.246Z,0.1342
2023-05-14T10:30:26.889Z,0.1237
2023-05-14T10:31:28.107Z,0.0938
2023-05-14T10:32:29.622Z,0.1302
2023-05-14T10:33:30.921Z,0.0707
2023-05-14T10:34:32.382Z,0.0995
2023-05-14T10:35:33.603Z,0.1082
2023-05-14T10:36:35.190Z,0.0841
2023-05-14T10:37:36.630Z,0.1256
2023-05-14T10:38:38.067Z,0.1156
2023-05-14T10:39:39.505Z,0.1751
2023-05-14T10:40:40.864Z,0.1478
2023-05-14T10:41:42.288Z,0.0803
2023-05-14T10:42:43.734Z,0.0963
2023-05-14T10:43:45.167Z,0.0833
2023-05-14T10:44:46.611Z,0.1392
2023-05-14T10:45:47.949Z,0.1345
2023-05-14T10:46:49.467Z,0.1150
2023-05-14T10:47:51.045Z,0.0861
2023-05-14T10:48:52.337Z,0.0280
2023-05-14T10:49:53.700Z,0.0711
2023-05-14T10:50:55.209Z,0.1104
2023-05-14T10:51:56.527Z,0.1050
2023-05-14T10:52:57.941Z,0.0934
2023-05-14T10:53:59.371Z,0.1156
2023-05-14T10:55:03.189Z,0.0921
2023-05-14T10:56:02.250Z,0.1583
2023-05-14T10:57:03.531Z,0.0756
2023-05-14T10:58:05.211Z,0.1286
2023-05-14T10:59:06.663Z,0.1503
2023-05-14T11:00:08.664Z,0.0752
2023-05-14T11:01:09.343Z,0.1495
2023-05-14T11:02:10.868Z,0.1355
2023-05-14T11:03:12.417Z,0.0831
2023-05-14T11:04:13.795Z,0.1880
2023-05-14T11:05:15.069Z,0.1819
2023-05-14T11:06:16.541Z,0.1353
2023-05-14T11:07:17.934Z,0.1374
2023-05-14T11:08:19.358Z,0.0995
2023-05-14T11:09:20.812Z,0.1240
2023-05-14T11:10:22.510Z,0.1678
2023-05-14T11:11:23.615Z,0.0911
2023-05-14T11:12:25.010Z,0.1384
2023-05-14T11:13:26.291Z,0.1196
2023-05-14T11:14:27.887Z,0.0851
2023-05-14T11:15:29.342Z,0.0900
2023-05-14T11:16:30.691Z,0.1035
2023-05-14T11:17:32.202Z,0.1742
2023-05-14T11:18:33.643Z,0.1733
2023-05-14T11:19:35.015Z,0.1961
2023-05-14T11:20:36.362Z,0.1315
2023-05-14T11:21:37.879Z,0.1088
2023-05-14T11:22:39.186Z,0.1920
2023-05-14T11:23:40.723Z,0.1561
2023-05-14T11:24:42.286Z,0.0969
2023-05-14T11:25:43.602Z,0.1430
2023-05-14T11:26:44.930Z,0.1077
2023-05-14T11:27:46.354Z,0.1455
2023-05-14T11:28:47.776Z,0.1761
2023-05-14T11:29:49.210Z,0.1082
2023-05-14T11:30:50.676Z,0.1460
2023-05-14T11:31:52.164Z,0.1512
2023-05-14T11:32:53.399Z,0.1386
2023-05-14T11:33:54.927Z,0.1170
2023-05-14T11:34:56.343Z,0.0682
2023-05-14T11:35:57.798Z,0.1166
2023-05-14T11:36:59.297Z,0.0831
2023-05-14T11:38:00.654Z,0.1764
2023-05-14T11:39:01.992Z,0.0949
2023-05-14T11:40:03.503Z,0.1058
2023-05-14T11:41:04.831Z,0.0895
2023-05-14T11:42:06.290Z,0.1844
2023-05-14T11:43:07.677Z,0.2173
2023-05-14T11:44:09.269Z,0.2030
2023-05-14T11:45:10.636Z,0.1268
2023-05-14T11:46:12.036Z,0.1022
2023-05-14T11:47:13.357Z,0.1203
2023-05-14T11:48:14.852Z,0.1352
2023-05-14T11:49:16.184Z,0.1215
2023-05-14T11:50:17.652Z,0.1466
2023-05-14T11:51:19.183Z,0.1324
2023-05-14T11:52:20.542Z,0.1453
2023-05-14T11:53:22.093Z,0.1725
2023-05-14T11:54:23.308Z,0.1425
2023-05-14T11:55:24.771Z,0.1025
2023-05-14T11:56:26.301Z,0.1172
2023-05-14T11:57:27.664Z,0.1728
2023-05-14T11:58:29.068Z,0.1999
2023-05-14T11:59:30.434Z,0.1830
2023-05-14T12:00:31.882Z,0.2621
2023-05-14T12:01:33.338Z,0.1502
2023-05-14T12:02:34.863Z,0.1275
2023-05-14T12:03:36.103Z,0.1794
2023-05-14T12:04:37.613Z,0.1544
2023-05-14T12:05:39.004Z,0.1782
2023-05-14T12:06:40.374Z,0.1422
2023-05-14T12:07:42.027Z,0.1498
2023-05-14T12:08:43.149Z,0.1395
2023-05-14T12:09:45.464Z,0.1326
2023-05-14T12:10:46.103Z,0.1201
2023-05-14T12:11:47.547Z,0.1528
2023-05-14T12:12:48.999Z,0.1518
2023-05-14T12:13:50.231Z,0.1255
2023-05-14T12:14:51.735Z,0.1210
2023-05-14T12:15:53.224Z,0.1069
2023-05-14T12:16:54.791Z,0.1602
2023-05-14T12:17:56.072Z,0.1414
2023-05-14T12:18:57.478Z,0.1321
2023-05-14T12:19:58.885Z,0.2147
2023-05-14T12:21:00.341Z,0.1860
2023-05-14T12:22:01.803Z,0.1790
2023-05-14T12:23:03.156Z,0.1995
2023-05-14T12:24:04.576Z,0.2054
2023-05-14T12:25:05.850Z,0.1241
2023-05-14T12:26:07.449Z,0.2226
2023-05-14T12:27:08.940Z,0.1566
2023-05-14T12:28:10.398Z,0.2408
2023-05-14T12:29:11.846Z,0.2395
2023-05-14T12:30:21.364Z,0.1599
2023-05-14T12:31:14.599Z,0.1654
2023-05-14T12:32:15.975Z,0.2045
2023-05-14T12:33:17.368Z,0.2091
2023-05-14T12:34:18.859Z,0.2035
2023-05-14T12:35:20.298Z,0.1835
2023-05-14T12:36:22.411Z,0.1426
2023-05-14T12:37:23.070Z,0.1942
2023-05-14T12:38:24.501Z,0.2008
2023-05-14T12:39:25.923Z,0.1738
2023-05-14T12:40:27.329Z,0.1772
2023-05-14T12:41:28.797Z,0.1848
2023-05-14T12:42:30.233Z,0.1642
2023-05-14T12:43:31.663Z,0.1893
2023-05-14T12:44:33.202Z,0.1462
2023-05-14T12:45:34.406Z,0.1844
2023-05-14T12:46:35.938Z,0.2433